Time;durP1;ratioP1;P1;durP2;ratioP2;P2;SDS_P1;SDS_P2;PMS_P1;PMS_P2;Temp;Humidity;BMP_temperature;BMP_pressure;BME280_temperature;BME280_humidity;BME280_pressure;Samples;Min_cycle;Max_cycle;Signal;HPM_P1;HPM_P2
2022/06/28 00:00:32;;;;;;;23.77;4.32;;;27.00;56.40;;;;;;5074580;28;20047;-65
2022/06/28 00:02:57;;;;;;;17.92;3.17;;;27.10;56.40;;;;;;5074497;28;20043;-64
2022/06/28 00:05:23;;;;;;;21.13;4.03;;;27.00;56.80;;;;;;5074734;28;20040;-64
2022/06/28 00:07:49;;;;;;;22.17;3.33;;;27.00;56.80;;;;;;5074130;28;20059;-64
2022/06/28 00:10:16;;;;;;;22.90;2.80;;;27.00;56.80;;;;;;5074077;28;20036;-64
2022/06/28 00:12:42;;;;;;;30.13;4.50;;;27.00;56.90;;;;;;5074131;28;20039;-65
2022/06/28 00:17:55;;;;;;;17.58;3.22;;;27.00;56.60;;;;;;5074628;28;20086;-66
2022/06/28 00:20:21;;;;;;;20.92;3.28;;;27.00;59.50;;;;;;5074267;28;20436;-64
2022/06/28 00:22:47;;;;;;;22.30;3.53;;;27.00;60.80;;;;;;5074107;28;20037;-64
2022/06/28 00:25:13;;;;;;;15.48;3.40;;;26.90;56.70;;;;;;5073908;28;20159;-65
2022/06/28 00:27:39;;;;;;;24.35;3.20;;;26.90;57.60;;;;;;5074074;28;20037;-65
2022/06/28 00:30:06;;;;;;;26.88;3.80;;;26.80;57.80;;;;;;5073419;28;20459;-65
2022/06/28 00:32:32;;;;;;;16.52;3.30;;;26.80;57.50;;;;;;5073690;28;20040;-65
2022/06/28 00:34:58;;;;;;;18.77;3.22;;;26.80;57.20;;;;;;5073659;28;20040;-65
2022/06/28 00:37:24;;;;;;;23.75;4.15;;;26.70;56.80;;;;;;5073927;28;20108;-65
2022/06/28 00:39:50;;;;;;;19.00;3.85;;;26.70;56.50;;;;;;5073888;28;20119;-64
2022/06/28 00:42:16;;;;;;;22.20;3.30;;;26.60;56.60;;;;;;5073626;28;20099;-64
2022/06/28 00:44:42;;;;;;;20.95;3.25;;;26.60;56.80;;;;;;5073480;28;20040;-65
2022/06/28 00:47:09;;;;;;;20.42;3.67;;;26.60;57.50;;;;;;5073768;28;20495;-65
2022/06/28 00:49:39;;;;;;;18.73;3.53;;;26.50;57.70;;;;;;5073665;28;20038;-65
2022/06/28 00:52:04;;;;;;;17.30;3.20;;;26.50;58.50;;;;;;5073461;28;20039;-64
2022/06/28 00:54:30;;;;;;;18.75;3.65;;;26.50;57.70;;;;;;5073532;28;20033;-65
2022/06/28 00:56:56;;;;;;;15.95;3.53;;;26.50;58.10;;;;;;5073686;28;20098;-64
2022/06/28 00:59:21;;;;;;;19.98;4.18;;;26.50;58.00;;;;;;5070262;28;20086;-65
2022/06/28 01:01:47;;;;;;;14.95;2.97;;;26.40;57.90;;;;;;5070644;28;20206;-65
2022/06/28 01:04:13;;;;;;;19.88;3.65;;;26.40;58.30;;;;;;5071201;28;20029;-63
2022/06/28 01:06:39;;;;;;;15.02;2.92;;;26.40;58.60;;;;;;5072935;28;20041;-65
2022/06/28 01:09:05;;;;;;;22.27;3.70;;;26.40;58.40;;;;;;5073161;28;20390;-65
2022/06/28 01:11:32;;;;;;;18.58;3.63;;;26.40;58.00;;;;;;5073092;28;20040;-64
2022/06/28 01:14:00;;;;;;;25.73;3.92;;;26.40;57.40;;;;;;5072503;28;20083;-64
2022/06/28 01:16:27;;;;;;;30.38;4.53;;;26.40;57.50;;;;;;5072747;28;20056;-65
2022/06/28 01:18:53;;;;;;;21.02;3.60;;;26.30;56.90;;;;;;5073196;28;20098;-65
2022/06/28 01:21:20;;;;;;;21.88;3.30;;;26.30;56.90;;;;;;5072861;28;20028;-65
2022/06/28 01:23:47;;;;;;;24.90;4.05;;;26.30;57.20;;;;;;5073058;28;20107;-65
2022/06/28 01:26:14;;;;;;;22.83;4.07;;;26.20;57.40;;;;;;5072934;28;20028;-65
2022/06/28 01:28:43;;;;;;;22.48;4.40;;;26.20;57.50;;;;;;5072462;28;20119;-64
2022/06/28 01:31:10;;;;;;;28.17;4.07;;;26.20;57.30;;;;;;5072780;28;20133;-65
2022/06/28 01:33:38;;;;;;;28.60;4.72;;;26.20;57.30;;;;;;5072645;28;20055;-65
2022/06/28 01:36:05;;;;;;;20.65;3.72;;;26.20;57.40;;;;;;5072781;28;20455;-64
2022/06/28 01:38:32;;;;;;;28.98;4.53;;;26.20;57.80;;;;;;5072848;28;20055;-65
2022/06/28 01:40:58;;;;;;;20.80;4.32;;;26.20;57.70;;;;;;5071858;28;20037;-64
2022/06/28 01:43:25;;;;;;;23.38;4.13;;;26.30;57.70;;;;;;5072811;28;20111;-65
2022/06/28 01:45:52;;;;;;;22.13;3.67;;;26.30;57.70;;;;;;5072718;28;20033;-65
2022/06/28 01:48:19;;;;;;;20.80;4.28;;;26.30;57.50;;;;;;5072801;28;20060;-64
2022/06/28 01:50:49;;;;;;;25.85;4.97;;;26.30;57.30;;;;;;5072253;28;20079;-65
2022/06/28 01:53:14;;;;;;;22.90;4.70;;;26.30;57.20;;;;;;5072666;28;20028;-64
2022/06/28 01:55:41;;;;;;;18.48;4.75;;;26.20;57.30;;;;;;5072809;28;20112;-64
2022/06/28 01:58:08;;;;;;;20.35;3.83;;;26.20;57.50;;;;;;5072846;28;20041;-64
2022/06/28 02:00:35;;;;;;;17.90;3.78;;;26.20;57.90;;;;;;5072720;28;20068;-65
2022/06/28 02:03:01;;;;;;;22.90;4.35;;;26.20;58.20;;;;;;5072700;28;20448;-65
2022/06/28 02:05:27;;;;;;;25.30;4.00;;;26.20;58.30;;;;;;5072599;28;20040;-65
2022/06/28 02:07:54;;;;;;;19.25;3.63;;;26.10;58.20;;;;;;5072580;28;20063;-65
2022/06/28 02:10:21;;;;;;;19.40;3.85;;;26.10;58.10;;;;;;5072470;28;20048;-65
2022/06/28 02:12:47;;;;;;;21.17;3.42;;;26.10;58.50;;;;;;5072469;28;20037;-65
2022/06/28 02:15:13;;;;;;;20.38;4.00;;;26.00;58.80;;;;;;5072511;28;20494;-65
2022/06/28 02:17:40;;;;;;;21.42;4.30;;;26.10;59.10;;;;;;5072472;28;20560;-65
2022/06/28 02:20:06;;;;;;;16.60;3.80;;;26.00;59.10;;;;;;5072428;28;20040;-65
2022/06/28 02:22:31;;;;;;;21.77;4.53;;;26.00;59.20;;;;;;5072307;28;20029;-64
2022/06/28 02:24:57;;;;;;;20.95;4.07;;;26.00;58.80;;;;;;5072512;28;20055;-65
2022/06/28 02:27:23;;;;;;;16.08;3.45;;;25.90;58.30;;;;;;5072207;28;20441;-65
2022/06/28 02:29:48;;;;;;;17.90;3.22;;;25.90;58.10;;;;;;5072178;28;20043;-65
2022/06/28 02:32:14;;;;;;;22.30;3.88;;;25.90;58.30;;;;;;5072077;28;20040;-66
2022/06/28 02:40:22;;;;;;;21.13;4.20;;;25.80;58.80;;;;;;5072512;28;20151;-65
2022/06/28 02:42:58;;;;;;;21.25;3.65;;;25.70;58.80;;;;;;5072081;28;20497;-64
2022/06/28 02:45:26;;;;;;;21.30;3.55;;;25.70;58.80;;;;;;5072046;28;20068;-65
2022/06/28 02:47:53;;;;;;;15.70;3.80;;;25.60;58.80;;;;;;5072104;28;20123;-65
2022/06/28 02:50:19;;;;;;;31.05;3.50;;;25.60;59.10;;;;;;5071632;28;20051;-65
2022/06/28 02:52:45;;;;;;;19.08;3.80;;;25.60;59.30;;;;;;5074024;28;20033;-66
2022/06/28 02:55:11;;;;;;;17.35;4.07;;;25.60;60.30;;;;;;5075463;28;20037;-64
2022/06/28 02:57:37;;;;;;;17.05;3.83;;;25.50;59.60;;;;;;5075784;28;20079;-64
2022/06/28 03:00:08;;;;;;;23.70;3.78;;;25.50;59.50;;;;;;5075543;28;20032;-64
2022/06/28 03:02:38;;;;;;;14.50;3.90;;;25.50;59.80;;;;;;5075661;28;20037;-65
2022/06/28 03:05:06;;;;;;;26.20;4.75;;;25.50;60.30;;;;;;5075485;28;20266;-64
2022/06/28 03:07:31;;;;;;;23.90;4.07;;;25.40;60.50;;;;;;5075282;28;20036;-65
2022/06/28 03:09:57;;;;;;;13.77;3.03;;;25.50;60.60;;;;;;5075425;28;20028;-65
2022/06/28 03:12:23;;;;;;;22.27;4.00;;;25.40;60.30;;;;;;5075390;28;20036;-66
2022/06/28 03:14:49;;;;;;;18.48;3.85;;;25.40;60.40;;;;;;5075527;28;20090;-64
2022/06/28 03:17:14;;;;;;;14.27;3.70;;;25.40;60.70;;;;;;5075382;28;20032;-64
2022/06/28 03:19:40;;;;;;;21.33;3.65;;;25.40;60.70;;;;;;5075383;28;20114;-64
2022/06/28 03:22:06;;;;;;;20.23;3.72;;;25.40;60.80;;;;;;5075404;28;20063;-65
2022/06/28 03:24:31;;;;;;;19.23;4.75;;;25.30;60.80;;;;;;5075050;28;20060;-65
2022/06/28 03:26:57;;;;;;;21.60;3.50;;;25.30;61.00;;;;;;5075188;28;20475;-64
2022/06/28 03:29:23;;;;;;;30.80;4.47;;;25.30;61.10;;;;;;5075342;28;20167;-65
2022/06/28 03:31:49;;;;;;;26.40;3.95;;;25.30;61.00;;;;;;5075162;28;20127;-65
2022/06/28 03:34:15;;;;;;;22.73;4.72;;;25.30;61.40;;;;;;5074752;28;20048;-65
2022/06/28 03:36:41;;;;;;;20.33;4.03;;;25.30;60.40;;;;;;5074876;28;20035;-65
2022/06/28 03:39:07;;;;;;;19.42;3.80;;;25.30;60.10;;;;;;5075062;28;20036;-65
2022/06/28 03:41:32;;;;;;;20.42;4.82;;;25.30;60.20;;;;;;5074737;28;20467;-65
2022/06/28 03:43:58;;;;;;;22.23;4.05;;;25.30;60.20;;;;;;5074754;28;20111;-64
2022/06/28 03:46:24;;;;;;;13.70;3.83;;;25.30;60.30;;;;;;5074519;28;20064;-65
2022/06/28 03:48:49;;;;;;;18.08;3.55;;;25.30;60.50;;;;;;5074686;28;20060;-65
2022/06/28 03:51:15;;;;;;;23.85;4.13;;;25.20;60.70;;;;;;5074638;28;20151;-65
2022/06/28 03:53:41;;;;;;;23.10;5.03;;;25.20;61.10;;;;;;5074868;28;20442;-65
2022/06/28 03:56:08;;;;;;;21.42;4.82;;;25.20;61.20;;;;;;5074733;28;20115;-64
2022/06/28 03:58:34;;;;;;;18.35;3.78;;;25.10;61.40;;;;;;5074530;28;20071;-65
2022/06/28 04:01:00;;;;;;;19.05;3.22;;;25.10;61.80;;;;;;5074316;28;20594;-65
2022/06/28 04:03:26;;;;;;;12.88;3.38;;;25.10;62.10;;;;;;5073695;28;20493;-65
2022/06/28 04:05:52;;;;;;;18.63;4.07;;;25.10;62.50;;;;;;5074591;28;20028;-63
2022/06/28 04:08:18;;;;;;;22.77;3.75;;;25.10;62.10;;;;;;5074245;28;20027;-64
2022/06/28 04:10:44;;;;;;;25.50;4.30;;;25.10;61.70;;;;;;5073938;28;20430;-65
2022/06/28 04:13:11;;;;;;;15.02;3.63;;;25.10;62.10;;;;;;5074418;28;20036;-64
2022/06/28 04:15:37;;;;;;;14.77;3.58;;;25.10;62.00;;;;;;5074483;28;20040;-65
2022/06/28 04:18:04;;;;;;;20.80;4.00;;;25.10;61.50;;;;;;5074578;28;20040;-65
2022/06/28 04:20:30;;;;;;;21.58;3.25;;;25.10;61.50;;;;;;5073922;28;20040;-65
2022/06/28 04:22:56;;;;;;;23.80;3.95;;;25.10;61.90;;;;;;5074175;28;20032;-64
2022/06/28 04:25:21;;;;;;;18.88;3.90;;;25.10;62.10;;;;;;5073902;28;20036;-64
2022/06/28 04:27:47;;;;;;;24.85;4.10;;;25.10;62.10;;;;;;5074248;28;20040;-65
2022/06/28 04:30:13;;;;;;;17.25;4.22;;;25.10;62.10;;;;;;5074019;28;20044;-65
2022/06/28 04:32:39;;;;;;;22.50;4.05;;;25.00;62.30;;;;;;5072559;28;20044;-64
2022/06/28 04:35:06;;;;;;;27.15;4.28;;;25.10;62.60;;;;;;5073728;28;20112;-65
2022/06/28 04:37:31;;;;;;;22.52;5.40;;;25.10;62.80;;;;;;5073872;28;20498;-63
2022/06/28 04:39:57;;;;;;;23.75;4.40;;;25.10;63.10;;;;;;5073630;28;20068;-65
2022/06/28 04:42:23;;;;;;;19.90;3.78;;;25.10;63.10;;;;;;5073804;28;20082;-65
2022/06/28 04:44:48;;;;;;;19.95;4.60;;;25.10;63.30;;;;;;5073434;28;20040;-64
2022/06/28 04:47:14;;;;;;;24.77;4.38;;;25.20;63.20;;;;;;5073753;28;20031;-65
2022/06/28 04:49:40;;;;;;;24.75;4.25;;;25.20;63.20;;;;;;5073513;28;20497;-64
2022/06/28 04:52:06;;;;;;;26.20;4.75;;;25.20;63.40;;;;;;5073493;28;20033;-63
2022/06/28 04:54:32;;;;;;;30.95;5.00;;;25.30;63.30;;;;;;5073086;28;20029;-64
2022/06/28 04:56:57;;;;;;;25.10;4.80;;;25.30;63.10;;;;;;5073215;28;20043;-63
2022/06/28 04:59:23;;;;;;;26.90;5.18;;;25.30;63.10;;;;;;5073591;28;20036;-64
2022/06/28 05:01:49;;;;;;;20.77;4.80;;;25.30;62.80;;;;;;5073594;28;20037;-64
2022/06/28 05:04:15;;;;;;;32.88;5.47;;;25.40;62.30;;;;;;5073221;28;20047;-63
2022/06/28 05:06:41;;;;;;;31.67;5.78;;;25.40;62.10;;;;;;5072659;28;20103;-64
2022/06/28 05:09:06;;;;;;;26.40;5.80;;;25.50;61.90;;;;;;5072580;28;20036;-65
2022/06/28 05:11:32;;;;;;;27.08;4.45;;;25.50;61.60;;;;;;5072902;28;20135;-65
2022/06/28 05:13:59;;;;;;;26.48;4.35;;;25.60;61.50;;;;;;5072987;28;20032;-63
2022/06/28 05:16:26;;;;;;;25.02;4.35;;;25.60;61.10;;;;;;5072835;28;20167;-64
2022/06/28 05:18:51;;;;;;;30.73;3.80;;;25.70;61.00;;;;;;5073096;28;20056;-64
2022/06/28 05:21:17;;;;;;;27.00;4.47;;;25.80;60.80;;;;;;5073095;28;20099;-64
2022/06/28 05:23:43;;;;;;;20.88;5.28;;;25.80;60.60;;;;;;5073271;28;20028;-67
2022/06/28 05:26:08;;;;;;;20.55;4.22;;;25.80;60.60;;;;;;5073300;28;20036;-64
2022/06/28 05:28:34;;;;;;;34.65;4.88;;;25.90;60.20;;;;;;5073244;28;20036;-64
2022/06/28 05:31:00;;;;;;;23.80;3.78;;;26.00;60.10;;;;;;5073104;28;20080;-64
2022/06/28 05:33:26;;;;;;;21.67;4.30;;;26.00;60.30;;;;;;5073013;28;20462;-65
2022/06/28 05:35:52;;;;;;;31.00;5.32;;;26.00;60.40;;;;;;5072862;28;20429;-64
2022/06/28 05:38:17;;;;;;;32.67;5.15;;;26.10;60.00;;;;;;5072949;28;20059;-64
2022/06/28 05:40:43;;;;;;;32.53;4.50;;;26.10;59.40;;;;;;5072696;28;20036;-64
2022/06/28 05:43:09;;;;;;;29.73;4.57;;;26.10;59.10;;;;;;5072782;28;20094;-68
2022/06/28 05:45:34;;;;;;;32.22;4.85;;;26.20;58.90;;;;;;5072941;28;20050;-69
2022/06/28 05:48:00;;;;;;;24.83;5.38;;;26.30;58.80;;;;;;5073066;28;20040;-69
2022/06/28 05:50:26;;;;;;;27.08;4.22;;;26.30;58.50;;;;;;5072764;28;20044;-69
2022/06/28 05:52:52;;;;;;;27.23;6.05;;;26.30;58.30;;;;;;5072547;28;20542;-68
2022/06/28 05:55:18;;;;;;;25.02;4.57;;;26.40;57.90;;;;;;5073048;28;20410;-69
2022/06/28 05:57:44;;;;;;;30.92;5.38;;;26.40;57.70;;;;;;5072806;28;20111;-70
2022/06/28 06:00:10;;;;;;;29.30;4.63;;;26.50;58.00;;;;;;5072768;28;20108;-68
2022/06/28 06:02:36;;;;;;;33.50;4.47;;;26.50;58.10;;;;;;5072816;28;20041;-68
2022/06/28 06:05:03;;;;;;;31.17;4.75;;;26.50;58.00;;;;;;5072919;28;20029;-70
2022/06/28 06:07:31;;;;;;;40.70;6.25;;;26.60;57.90;;;;;;5072315;28;20182;-67
2022/06/28 06:09:57;;;;;;;27.52;4.00;;;26.70;58.00;;;;;;5072456;28;20032;-68
2022/06/28 06:12:23;;;;;;;36.85;6.03;;;26.70;57.80;;;;;;5072575;28;20044;-68
2022/06/28 06:14:48;;;;;;;29.20;4.90;;;26.80;57.90;;;;;;5072299;28;20147;-68
2022/06/28 06:17:14;;;;;;;34.95;5.13;;;26.80;57.90;;;;;;5072328;28;20471;-67
2022/06/28 06:19:40;;;;;;;25.27;5.38;;;26.90;58.10;;;;;;5072423;28;20071;-69
2022/06/28 06:22:06;;;;;;;20.90;4.20;;;26.90;58.10;;;;;;5072037;28;20475;-67
2022/06/28 06:24:32;;;;;;;26.95;4.35;;;27.00;58.00;;;;;;5072009;28;20043;-68
2022/06/28 06:26:57;;;;;;;27.90;5.43;;;27.00;57.80;;;;;;5073129;28;20097;-67
2022/06/28 06:29:23;;;;;;;30.45;5.55;;;27.00;57.70;;;;;;5076360;28;20041;-67
2022/06/28 06:31:49;;;;;;;38.00;5.60;;;27.10;58.30;;;;;;5075965;28;20490;-67
2022/06/28 06:34:15;;;;;;;49.03;8.52;;;27.10;58.60;;;;;;5076097;28;20106;-67
2022/06/28 06:36:41;;;;;;;27.80;5.35;;;27.20;58.90;;;;;;5075115;28;20110;-68
2022/06/28 06:39:07;;;;;;;29.63;4.78;;;27.20;58.60;;;;;;5076270;28;20041;-67
2022/06/28 06:41:33;;;;;;;32.92;6.47;;;27.30;58.10;;;;;;5076452;28;20081;-70
2022/06/28 06:44:00;;;;;;;26.83;5.05;;;27.30;57.90;;;;;;5076373;28;20040;-69
2022/06/28 06:46:25;;;;;;;31.42;4.70;;;27.40;58.60;;;;;;5076084;28;20068;-69
2022/06/28 06:48:51;;;;;;;29.02;5.55;;;27.40;58.60;;;;;;5076131;28;20482;-69
2022/06/28 06:51:17;;;;;;;34.50;4.88;;;27.40;58.60;;;;;;5075992;28;20127;-68
2022/06/28 06:53:43;;;;;;;24.67;5.25;;;27.50;58.80;;;;;;5076146;28;20059;-68
2022/06/28 06:56:09;;;;;;;22.55;3.95;;;27.50;58.50;;;;;;5075775;28;20064;-67
2022/06/28 06:58:35;;;;;;;38.15;5.00;;;27.50;58.30;;;;;;5075693;28;20037;-69
2022/06/28 07:01:00;;;;;;;26.65;5.00;;;27.60;58.80;;;;;;5075648;28;20033;-68
2022/06/28 07:03:26;;;;;;;37.15;5.03;;;27.70;59.40;;;;;;5075975;28;20036;-67
2022/06/28 07:05:53;;;;;;;32.65;5.57;;;27.80;60.00;;;;;;5075389;28;20036;-67
2022/06/28 07:08:19;;;;;;;24.40;4.47;;;27.80;59.30;;;;;;5075928;28;20028;-68
2022/06/28 07:10:44;;;;;;;28.08;5.28;;;27.90;59.00;;;;;;5075620;28;20051;-67
2022/06/28 07:13:10;;;;;;;30.80;5.35;;;28.00;58.40;;;;;;5075750;28;20486;-67
2022/06/28 07:15:36;;;;;;;34.47;4.93;;;28.10;58.20;;;;;;5075643;28;20032;-68
2022/06/28 07:18:02;;;;;;;32.80;5.32;;;28.10;58.10;;;;;;5075794;28;20025;-68
2022/06/28 07:20:28;;;;;;;34.65;4.40;;;28.20;58.10;;;;;;5075443;28;20033;-67
2022/06/28 07:22:54;;;;;;;28.35;4.55;;;28.20;58.10;;;;;;5075424;28;20044;-69
2022/06/28 07:25:20;;;;;;;42.17;5.38;;;28.20;58.00;;;;;;5075471;28;20032;-69
2022/06/28 07:27:46;;;;;;;36.03;5.75;;;28.30;58.40;;;;;;5075210;28;20045;-70
2022/06/28 07:30:12;;;;;;;34.72;4.85;;;28.30;58.60;;;;;;5075131;28;20044;-68
2022/06/28 07:32:38;;;;;;;33.25;4.95;;;28.40;57.50;;;;;;5075175;28;20047;-67
2022/06/28 07:35:05;;;;;;;34.83;5.10;;;;;;;;;;5074938;28;20044;-68
2022/06/28 07:37:31;;;;;;;41.28;7.35;;;;;;;;;;5075139;28;20067;-67
2022/06/28 07:39:57;;;;;;;32.20;5.07;;;;;;;;;;5073788;28;20037;-68
2022/06/28 07:42:23;;;;;;;30.42;5.13;;;;;;;;;;5074887;28;20040;-67
2022/06/28 07:44:49;;;;;;;41.00;5.97;;;;;;;;;;5075422;28;20427;-68
2022/06/28 07:47:15;;;;;;;33.13;5.20;;;28.50;56.70;;;;;;5074887;28;20040;-68
2022/06/28 07:52:33;;;;;;;34.10;5.55;;;29.00;53.90;;;;;;5075203;28;20086;-68
2022/06/28 07:54:59;;;;;;;47.55;5.53;;;29.00;53.90;;;;;;5074868;28;20036;-68
2022/06/28 07:57:27;;;;;;;39.13;6.10;;;29.10;53.70;;;;;;5074795;28;20032;-68
2022/06/28 07:59:52;;;;;;;39.67;5.93;;;29.20;53.30;;;;;;5074000;28;20029;-67
2022/06/28 08:02:18;;;;;;;39.17;5.90;;;29.20;52.30;;;;;;5074271;28;20123;-67
2022/06/28 08:04:44;;;;;;;27.23;4.60;;;29.30;52.40;;;;;;5073524;28;20422;-69
2022/06/28 08:07:09;;;;;;;33.63;5.63;;;29.40;52.10;;;;;;5074384;28;20119;-67
2022/06/28 08:09:35;;;;;;;36.70;5.57;;;29.50;51.90;;;;;;5074445;28;20074;-70
2022/06/28 08:12:01;;;;;;;27.27;4.95;;;29.60;52.10;;;;;;5074385;28;20044;-67
2022/06/28 08:14:28;;;;;;;35.58;5.28;;;29.70;51.90;;;;;;5074533;28;20104;-67
2022/06/28 08:16:54;;;;;;;29.58;5.18;;;29.70;52.00;;;;;;5073569;28;20039;-67
2022/06/28 08:19:19;;;;;;;34.78;5.18;;;29.80;52.30;;;;;;5073690;28;20043;-67
2022/06/28 08:21:47;;;;;;;36.60;5.35;;;29.90;52.10;;;;;;5073742;28;20487;-67
2022/06/28 08:24:13;;;;;;;40.45;5.97;;;30.00;50.70;;;;;;5072613;28;20439;-67
2022/06/28 08:26:42;;;;;;;29.23;4.47;;;30.10;49.40;;;;;;5073764;28;20064;-67
2022/06/28 08:29:09;;;;;;;32.40;5.82;;;30.20;49.50;;;;;;5073487;28;20078;-67
2022/06/28 08:31:35;;;;;;;36.03;5.38;;;30.30;48.90;;;;;;5073545;28;20052;-69
2022/06/28 08:34:01;;;;;;;41.88;5.47;;;30.40;48.30;;;;;;5073806;28;20048;-67
2022/06/28 08:36:26;;;;;;;33.95;5.15;;;30.50;47.20;;;;;;5074040;28;20036;-66
2022/06/28 08:38:52;;;;;;;78.63;6.72;;;;;;;;;;5073996;28;20108;-70
2022/06/28 08:41:19;;;;;;;44.55;6.13;;;30.80;46.20;;;;;;5073845;28;20437;-71
2022/06/28 08:43:45;;;;;;;34.33;5.00;;;30.90;46.60;;;;;;5073447;28;20025;-67
2022/06/28 08:46:10;;;;;;;31.50;5.38;;;31.00;46.50;;;;;;5073832;28;20494;-69
2022/06/28 08:48:42;;;;;;;33.72;5.22;;;31.10;46.00;;;;;;5073810;28;20073;-67
2022/06/28 08:51:08;;;;;;;;;;;31.20;44.90;;;;;;5073574;28;20387;-67
2022/06/28 08:53:36;;;;;;;34.45;5.50;;;;;;;;;;5073417;28;19904;-66
2022/06/28 08:56:02;;;;;;;42.95;4.82;;;31.40;44.50;;;;;;5073606;28;20032;-69
2022/06/28 08:58:29;;;;;;;41.40;5.00;;;31.50;44.30;;;;;;5073614;28;20151;-67
2022/06/28 09:00:55;;;;;;;29.23;4.38;;;;;;;;;;5073419;28;20035;-67
2022/06/28 09:03:21;;;;;;;29.85;5.68;;;;;;;;;;5073424;28;20037;-66
2022/06/28 09:05:47;;;;;;;31.73;5.30;;;31.60;43.60;;;;;;5073419;28;20107;-69
2022/06/28 09:08:12;;;;;;;32.90;4.95;;;31.70;44.10;;;;;;5073429;28;20547;-70
2022/06/28 09:10:38;;;;;;;29.38;5.13;;;31.80;44.90;;;;;;5073284;28;20048;-66
2022/06/28 09:13:09;;;;;;;31.95;5.00;;;31.80;44.50;;;;;;5073140;28;20066;-66
2022/06/28 09:15:56;;;;;;;40.72;5.10;;;31.90;44.50;;;;;;5073113;28;20033;-67
2022/06/28 09:18:34;;;;;;;27.35;4.90;;;32.00;45.00;;;;;;5073001;28;20029;-67
2022/06/28 09:21:00;;;;;;;23.42;4.40;;;32.00;44.90;;;;;;5073128;28;20036;-67
2022/06/28 09:23:30;;;;;;;21.13;4.57;;;32.10;44.90;;;;;;5072953;28;20478;-69
2022/06/28 09:26:17;;;;;;;37.67;5.22;;;32.20;45.40;;;;;;5073136;28;20111;-65
2022/06/28 09:28:52;;;;;;;40.55;5.13;;;32.20;46.10;;;;;;5072994;28;20037;-66
2022/06/28 09:31:20;;;;;;;34.70;4.80;;;32.30;45.20;;;;;;5072767;28;20048;-66
2022/06/28 09:34:03;;;;;;;22.80;4.18;;;32.30;45.40;;;;;;5072881;28;20128;-66
2022/06/28 09:36:38;;;;;;;34.30;5.68;;;32.40;45.50;;;;;;5073146;28;20036;-66
2022/06/28 09:39:18;;;;;;;30.63;4.78;;;32.40;44.60;;;;;;5073005;28;20498;-66
2022/06/28 09:41:47;;;;;;;39.75;5.88;;;32.60;45.20;;;;;;5073217;28;20122;-66
2022/06/28 09:44:13;;;;;;;22.23;4.75;;;32.60;44.90;;;;;;5072777;28;20032;-67
2022/06/28 09:46:39;;;;;;;29.00;4.97;;;32.60;44.90;;;;;;5072690;28;20135;-67
2022/06/28 09:49:07;;;;;;;28.35;5.05;;;32.70;44.50;;;;;;5072856;28;20039;-67
2022/06/28 09:51:35;;;;;;;30.15;4.25;;;32.80;45.20;;;;;;5072856;28;20044;-67
2022/06/28 09:54:04;;;;;;;28.50;4.70;;;32.80;44.90;;;;;;5072528;28;20386;-66
2022/06/28 09:56:43;;;;;;;29.98;5.22;;;32.80;45.40;;;;;;5072636;28;20108;-66
2022/06/28 09:59:10;;;;;;;17.55;4.15;;;32.90;44.40;;;;;;5072359;28;20037;-67
2022/06/28 10:01:36;;;;;;;30.98;4.93;;;33.00;44.40;;;;;;5072592;28;20071;-67
2022/06/28 10:04:03;;;;;;;28.70;5.05;;;33.10;44.90;;;;;;5076474;28;20067;-69
2022/06/28 10:06:29;;;;;;;25.27;4.72;;;33.20;45.10;;;;;;5076523;28;20068;-66
2022/06/28 10:08:55;;;;;;;27.05;4.90;;;33.20;44.60;;;;;;5076940;28;20032;-67
2022/06/28 10:11:21;;;;;;;20.40;4.65;;;33.20;44.60;;;;;;5076425;28;20036;-66
2022/06/28 10:17:04;;;;;;;24.67;4.40;;;33.40;43.90;;;;;;5074071;28;20094;-66
2022/06/28 10:19:32;;;;;;;28.95;4.50;;;33.40;44.10;;;;;;5074811;28;20425;-66
2022/06/28 10:21:58;;;;;;;24.77;5.28;;;33.40;44.00;;;;;;5075834;28;20479;-66
2022/06/28 10:24:52;;;;;;;26.05;4.15;;;33.40;44.20;;;;;;5075818;28;20029;-66
2022/06/28 10:27:18;;;;;;;32.85;5.70;;;33.40;43.30;;;;;;5075162;28;20429;-66
2022/06/28 10:30:00;;;;;;;20.45;4.75;;;33.50;44.40;;;;;;5075963;28;20033;-65
2022/06/28 10:32:44;;;;;;;;;;;33.50;44.20;;;;;;5076201;28;20051;-65
2022/06/28 10:35:30;;;;;;;30.92;5.22;;;33.50;44.20;;;;;;5076039;28;19904;-66
2022/06/28 10:38:08;;;;;;;28.17;6.07;;;33.50;44.40;;;;;;5075832;28;20032;-66
2022/06/28 10:40:49;;;;;;;23.98;4.75;;;33.60;45.40;;;;;;5075342;28;20028;-66
2022/06/28 10:43:26;;;;;;;29.00;4.93;;;33.70;45.30;;;;;;5075635;28;20037;-65
2022/06/28 10:46:07;;;;;;;31.30;4.72;;;33.70;44.60;;;;;;5075860;28;20482;-68
2022/06/28 10:48:48;;;;;;;24.98;4.85;;;33.80;44.80;;;;;;5075959;28;20082;-67
2022/06/28 10:51:14;;;;;;;31.88;4.95;;;33.90;43.80;;;;;;5075379;28;20041;-68
2022/06/28 10:53:55;;;;;;;34.55;5.57;;;33.90;44.20;;;;;;5075724;28;20407;-67
2022/06/28 10:56:21;;;;;;;28.98;5.03;;;34.00;43.90;;;;;;5075855;28;20035;-66
2022/06/28 10:58:55;;;;;;;24.42;4.93;;;34.00;44.30;;;;;;5075640;28;20040;-66
2022/06/28 11:01:39;;;;;;;35.53;5.47;;;34.00;44.20;;;;;;5075620;28;20044;-67
2022/06/28 11:04:18;;;;;;;33.50;4.80;;;34.10;44.60;;;;;;5075744;28;20106;-65
2022/06/28 11:06:50;;;;;;;25.17;4.95;;;34.10;43.80;;;;;;5074949;28;20071;-67
2022/06/28 11:09:49;;;;;;;33.72;5.07;;;34.20;44.00;;;;;;5075455;28;20024;-69
2022/06/28 11:12:35;;;;;;;27.83;4.45;;;34.30;43.80;;;;;;5074361;28;20467;-66
2022/06/28 11:15:02;;;;;;;26.27;4.55;;;34.30;44.80;;;;;;5075305;28;20045;-69
2022/06/28 11:17:30;;;;;;;33.95;5.32;;;34.40;43.30;;;;;;5075119;28;20036;-62
2022/06/28 11:20:02;;;;;;;26.42;5.75;;;34.40;42.80;;;;;;5075242;28;20103;-63
2022/06/28 11:22:30;;;;;;;31.13;5.60;;;34.40;43.70;;;;;;5075633;28;20040;-70
2022/06/28 11:25:07;;;;;;;23.73;5.10;;;34.40;43.90;;;;;;5075319;28;20028;-64
2022/06/28 11:27:33;;;;;;;29.63;5.55;;;34.40;43.50;;;;;;5075015;28;20399;-69
2022/06/28 11:30:02;;;;;;;27.67;5.20;;;34.50;44.50;;;;;;5075005;28;20040;-64
2022/06/28 11:32:36;;;;;;;23.13;4.40;;;34.50;43.90;;;;;;5075364;28;20448;-65
2022/06/28 11:35:06;;;;;;;34.28;5.05;;;34.50;44.30;;;;;;5075193;28;20380;-65
2022/06/28 11:38:15;;;;;;;26.33;4.82;;;34.60;44.20;;;;;;5075098;28;20039;-66
2022/06/28 11:40:43;;;;;;;26.25;4.80;;;34.70;44.60;;;;;;5066231;28;20116;-66
2022/06/28 11:43:12;;;;;;;28.58;5.13;;;34.80;43.90;;;;;;5075310;28;20111;-66
2022/06/28 11:45:49;;;;;;;22.67;4.93;;;34.70;44.10;;;;;;5074933;28;20510;-67
2022/06/28 11:48:20;;;;;;;32.40;5.20;;;34.80;45.30;;;;;;5074988;28;20032;-67
2022/06/28 11:50:51;;;;;;;26.17;4.63;;;34.70;43.90;;;;;;5074645;28;20049;-67
2022/06/28 11:53:17;;;;;;;25.50;5.13;;;34.70;43.90;;;;;;5074378;28;20074;-67
2022/06/28 11:55:51;;;;;;;31.80;5.10;;;34.60;43.10;;;;;;5072743;28;20032;-67
2022/06/28 11:58:27;;;;;;;24.83;5.45;;;34.50;43.60;;;;;;5074442;28;20070;-64
2022/06/28 12:01:11;;;;;;;29.77;4.93;;;34.40;44.10;;;;;;5074363;28;20033;-64
2022/06/28 12:03:43;;;;;;;21.70;5.18;;;34.40;44.50;;;;;;5053942;28;20036;-66
2022/06/28 12:06:11;;;;;;;24.80;5.15;;;34.40;44.50;;;;;;5053997;28;20070;-66
2022/06/28 12:08:55;;;;;;;30.25;5.15;;;34.30;44.50;;;;;;5064609;28;20029;-67
2022/06/28 12:11:43;;;;;;;25.20;5.18;;;34.30;44.20;;;;;;5073077;28;20087;-66
2022/06/28 12:14:12;;;;;;;26.30;5.05;;;34.40;45.20;;;;;;5073297;28;20033;-67
2022/06/28 12:16:41;;;;;;;27.35;5.70;;;34.40;45.20;;;;;;5073903;28;20037;-65
2022/06/28 12:19:09;;;;;;;30.23;5.53;;;34.40;45.00;;;;;;5073657;28;20032;-69
2022/06/28 12:21:36;;;;;;;28.20;5.35;;;34.40;44.00;;;;;;5073925;28;20028;-69
2022/06/28 12:24:03;;;;;;;23.25;5.63;;;34.40;44.80;;;;;;5073690;28;20033;-66
2022/06/28 12:26:38;;;;;;;30.23;4.88;;;34.40;44.40;;;;;;5073131;28;20537;-65
2022/06/28 12:29:03;;;;;;;25.92;5.18;;;34.40;44.50;;;;;;5073315;28;20174;-68
2022/06/28 12:31:29;;;;;;;24.50;4.45;;;34.30;45.00;;;;;;5073293;28;20124;-64
2022/06/28 12:33:55;;;;;;;24.33;5.70;;;34.40;45.40;;;;;;5073439;28;20049;-64
2022/06/28 12:36:21;;;;;;;21.60;4.90;;;34.50;45.60;;;;;;5073181;28;20036;-65
2022/06/28 12:38:46;;;;;;;33.17;5.43;;;34.50;45.60;;;;;;5073303;28;20036;-65
2022/06/28 12:41:12;;;;;;;24.65;4.53;;;34.50;45.20;;;;;;5073047;28;20043;-69
2022/06/28 12:43:37;;;;;;;26.10;5.13;;;34.50;44.90;;;;;;5073268;28;20474;-67
2022/06/28 12:46:03;;;;;;;22.60;4.80;;;34.50;45.80;;;;;;5073174;28;20036;-65
2022/06/28 12:48:32;;;;;;;21.23;4.88;;;34.50;45.90;;;;;;5073515;28;20028;-68
2022/06/28 12:50:58;;;;;;;25.15;5.22;;;34.40;46.00;;;;;;5073282;28;20491;-64
2022/06/28 12:53:24;;;;;;;30.85;5.03;;;34.50;46.10;;;;;;5073319;28;20033;-65
2022/06/28 12:55:50;;;;;;;30.13;5.22;;;34.60;46.40;;;;;;5073266;28;20501;-66
2022/06/28 12:58:15;;;;;;;28.08;5.13;;;34.60;45.90;;;;;;5072958;28;20427;-67